createdAt,value
2022-08-19T00:01:53.131Z,18.88
2022-08-19T00:04:28.311Z,18.88
2022-08-19T00:06:55.769Z,18.91
2022-08-19T00:09:24.539Z,18.94
2022-08-19T00:11:54.020Z,18.93
2022-08-19T00:14:21.941Z,18.93
2022-08-19T00:16:50.142Z,18.96
2022-08-19T00:19:17.433Z,18.97
2022-08-19T00:21:44.478Z,18.97
2022-08-19T00:24:13.273Z,19.00
2022-08-19T00:26:40.449Z,19.03
2022-08-19T00:29:08.967Z,19.07
2022-08-19T00:31:36.717Z,19.05
2022-08-19T00:34:04.112Z,19.10
2022-08-19T00:36:32.864Z,19.08
2022-08-19T00:39:00.319Z,19.10
2022-08-19T00:41:27.682Z,19.09
2022-08-19T00:44:26.950Z,19.03
2022-08-19T00:46:58.150Z,19.04
2022-08-19T00:49:42.498Z,19.05
2022-08-19T00:52:14.575Z,19.04
2022-08-19T00:54:42.522Z,19.07
2022-08-19T00:57:15.939Z,19.11
2022-08-19T01:00:00.325Z,19.10
2022-08-19T01:02:31.181Z,19.08
2022-08-19T01:04:58.476Z,19.10
2022-08-19T01:07:25.805Z,19.10
2022-08-19T01:09:53.224Z,19.08
2022-08-19T01:12:20.398Z,19.09
2022-08-19T01:14:48.604Z,19.04
2022-08-19T01:17:17.200Z,19.10
2022-08-19T01:19:47.731Z,19.09
2022-08-19T01:22:33.259Z,19.11
2022-08-19T01:25:01.635Z,19.13
2022-08-19T01:27:30.366Z,19.10
2022-08-19T01:30:11.854Z,19.06
2022-08-19T01:32:38.565Z,19.08
2022-08-19T01:35:06.263Z,19.07
2022-08-19T01:37:44.973Z,19.06
2022-08-19T01:40:12.502Z,19.03
2022-08-19T01:42:39.470Z,19.06
2022-08-19T01:45:08.506Z,19.04
2022-08-19T01:47:38.978Z,19.04
2022-08-19T01:50:08.215Z,19.01
2022-08-19T01:52:39.112Z,19.05
2022-08-19T01:55:08.495Z,18.97
2022-08-19T01:57:35.885Z,18.98
2022-08-19T02:00:07.537Z,18.89
2022-08-19T02:02:34.278Z,18.93
2022-08-19T02:05:01.017Z,18.89
2022-08-19T02:07:29.297Z,18.94
2022-08-19T02:09:56.515Z,18.85
2022-08-19T02:12:23.314Z,18.85
2022-08-19T02:14:50.196Z,18.88
2022-08-19T02:17:16.972Z,18.80
2022-08-19T02:19:43.751Z,18.72
2022-08-19T02:22:10.527Z,18.79
2022-08-19T02:24:37.372Z,18.72
2022-08-19T02:27:04.432Z,18.76
2022-08-19T02:29:31.162Z,18.74
2022-08-19T02:31:58.060Z,18.76
2022-08-19T02:34:26.005Z,18.80
2022-08-19T02:36:52.948Z,18.75
2022-08-19T02:39:20.064Z,18.77
2022-08-19T02:41:46.826Z,18.73
2022-08-19T02:44:28.853Z,18.67
2022-08-19T02:46:58.566Z,18.73
2022-08-19T02:49:25.364Z,18.68
2022-08-19T02:54:34.488Z,18.59
2022-08-19T02:57:01.362Z,18.51
2022-08-19T02:59:31.283Z,18.52
2022-08-19T03:01:58.153Z,18.56
2022-08-19T03:04:25.440Z,18.51
2022-08-19T03:06:52.548Z,18.54
2022-08-19T03:09:20.844Z,18.59
2022-08-19T03:11:49.343Z,18.63
2022-08-19T03:14:19.608Z,18.64
2022-08-19T03:16:50.022Z,18.67
2022-08-19T03:19:18.630Z,18.51
2022-08-19T03:21:45.984Z,18.62
2022-08-19T03:24:14.604Z,18.59
2022-08-19T03:26:44.384Z,18.57
2022-08-19T03:29:13.382Z,18.67
2022-08-19T03:31:52.136Z,18.60
2022-08-19T03:34:28.935Z,18.60
2022-08-19T03:37:04.523Z,18.57
2022-08-19T03:39:31.673Z,18.64
2022-08-19T03:42:38.168Z,18.57
2022-08-19T03:44:47.789Z,18.60
2022-08-19T03:47:17.526Z,18.64
2022-08-19T03:49:44.643Z,18.64
2022-08-19T03:52:11.495Z,18.62
2022-08-19T03:54:39.521Z,18.60
2022-08-19T03:57:06.982Z,18.66
2022-08-19T03:59:36.486Z,18.64
2022-08-19T04:02:10.259Z,18.72
2022-08-19T04:04:39.738Z,18.64
2022-08-19T04:07:07.641Z,18.67
2022-08-19T04:09:35.664Z,18.69
2022-08-19T04:12:02.468Z,18.71
2022-08-19T04:14:34.788Z,18.69
2022-08-19T04:17:05.774Z,18.74
2022-08-19T04:19:34.918Z,18.80
2022-08-19T04:22:01.740Z,18.81
2022-08-19T04:24:28.537Z,18.84
2022-08-19T04:26:55.691Z,18.87
2022-08-19T04:29:26.261Z,18.80
2022-08-19T04:31:54.584Z,18.92
2022-08-19T04:34:33.548Z,18.87
2022-08-19T04:37:00.308Z,18.88
2022-08-19T04:39:49.833Z,18.90
2022-08-19T04:42:38.079Z,18.91
2022-08-19T04:45:12.630Z,18.85
2022-08-19T04:47:49.401Z,18.91
2022-08-19T04:50:27.776Z,18.93
2022-08-19T04:52:57.098Z,18.89
2022-08-19T04:55:26.477Z,18.88
2022-08-19T04:57:54.586Z,18.90
2022-08-19T05:00:21.473Z,18.85
2022-08-19T05:02:50.457Z,18.88
2022-08-19T05:05:18.329Z,18.90
2022-08-19T05:07:45.457Z,18.93
2022-08-19T05:10:12.703Z,18.82
2022-08-19T05:12:40.185Z,18.92
2022-08-19T05:15:09.563Z,18.89
2022-08-19T05:17:38.866Z,18.83
2022-08-19T05:20:27.106Z,18.86
2022-08-19T05:22:54.026Z,18.86
2022-08-19T05:25:22.635Z,18.94
2022-08-19T05:27:49.879Z,18.85
2022-08-19T05:30:18.097Z,18.80
2022-08-19T05:32:49.458Z,18.81
2022-08-19T05:35:16.253Z,18.77
2022-08-19T05:37:43.008Z,18.82
2022-08-19T05:40:10.728Z,18.84
2022-08-19T05:42:38.408Z,18.91
2022-08-19T05:45:06.499Z,18.86
2022-08-19T05:47:33.496Z,18.89
2022-08-19T05:50:02.917Z,18.91
2022-08-19T05:52:32.543Z,18.87
2022-08-19T05:55:00.422Z,18.84
2022-08-19T05:57:29.875Z,18.78
2022-08-19T05:59:58.853Z,18.90
2022-08-19T06:02:32.038Z,18.99
2022-08-19T06:04:58.979Z,18.99
2022-08-19T06:07:26.095Z,19.11
2022-08-19T06:09:59.063Z,19.01
2022-08-19T06:12:35.330Z,19.01
2022-08-19T06:15:08.450Z,19.00
2022-08-19T06:17:36.359Z,19.06
2022-08-19T06:20:10.054Z,18.90
2022-08-19T06:22:41.177Z,18.86
2022-08-19T06:25:10.397Z,18.93
2022-08-19T06:27:42.040Z,18.87
2022-08-19T06:30:15.909Z,18.84
2022-08-19T06:32:43.131Z,18.84
2022-08-19T06:35:10.013Z,18.86
2022-08-19T06:37:39.718Z,18.97
2022-08-19T06:40:09.499Z,18.95
2022-08-19T06:42:36.535Z,19.03
2022-08-19T06:45:09.273Z,19.06
2022-08-19T06:47:36.479Z,19.04
2022-08-19T06:50:05.365Z,19.06
2022-08-19T06:52:34.881Z,19.05
2022-08-19T06:55:06.274Z,18.96
2022-08-19T06:57:34.522Z,19.04
2022-08-19T07:00:01.852Z,19.02
2022-08-19T07:02:29.152Z,19.04
2022-08-19T07:04:59.048Z,18.99
2022-08-19T07:07:25.977Z,19.04
2022-08-19T07:09:59.026Z,18.98
2022-08-19T07:12:38.273Z,19.03
2022-08-19T07:15:09.897Z,18.98
2022-08-19T07:17:39.123Z,18.97
2022-08-19T07:20:09.345Z,19.01
2022-08-19T07:22:39.091Z,19.12
2022-08-19T07:25:09.268Z,19.23
2022-08-19T07:27:36.834Z,19.23
2022-08-19T07:30:04.251Z,19.13
2022-08-19T07:32:32.512Z,19.13
2022-08-19T07:35:01.784Z,19.22
2022-08-19T07:37:33.107Z,19.18
2022-08-19T07:40:02.064Z,19.26
2022-08-19T07:42:30.821Z,19.10
2022-08-19T07:44:58.816Z,19.15
2022-08-19T07:47:49.585Z,19.19
2022-08-19T07:50:12.716Z,19.10
2022-08-19T07:52:40.677Z,19.05
2022-08-19T07:55:40.212Z,19.11
2022-08-19T07:57:56.894Z,18.96
2022-08-19T08:00:24.525Z,19.01
2022-08-19T08:02:53.000Z,19.08
2022-08-19T08:05:43.675Z,19.03
2022-08-19T08:08:43.918Z,19.07
2022-08-19T08:11:15.503Z,19.15
2022-08-19T08:13:42.903Z,19.11
2022-08-19T08:16:10.299Z,19.13
2022-08-19T08:18:43.271Z,19.25
2022-08-19T08:21:18.198Z,19.18
2022-08-19T08:23:45.264Z,19.27
2022-08-19T08:26:14.055Z,19.32
2022-08-19T08:28:42.853Z,19.40
2022-08-19T08:31:15.540Z,19.36
2022-08-19T08:33:43.305Z,19.55
2022-08-19T08:36:10.826Z,19.70
2022-08-19T08:38:40.551Z,19.79
2022-08-19T08:41:20.500Z,19.56
2022-08-19T08:43:50.050Z,19.50
2022-08-19T08:46:31.645Z,19.49
2022-08-19T08:49:09.757Z,19.48
2022-08-19T08:54:11.869Z,19.52
2022-08-19T08:56:40.814Z,19.57
2022-08-19T08:59:52.265Z,19.55
2022-08-19T09:02:19.865Z,19.56
2022-08-19T09:04:47.450Z,19.52
2022-08-19T09:07:36.857Z,19.53
2022-08-19T09:10:25.799Z,19.70
2022-08-19T09:13:09.319Z,19.59
2022-08-19T09:15:45.517Z,19.60
2022-08-19T09:18:19.128Z,19.73
2022-08-19T09:20:50.831Z,19.70
2022-08-19T09:23:17.651Z,19.68
2022-08-19T09:25:44.529Z,19.67
2022-08-19T09:28:15.526Z,19.71
2022-08-19T09:30:49.655Z,19.72
2022-08-19T09:33:20.583Z,19.63
2022-08-19T09:35:53.378Z,19.66
2022-08-19T09:38:22.286Z,19.66
2022-08-19T09:40:50.350Z,19.48
2022-08-19T09:43:34.059Z,19.57
2022-08-19T09:46:07.425Z,19.40
2022-08-19T09:48:35.017Z,19.32
2022-08-19T09:51:09.095Z,19.34
2022-08-19T09:53:40.074Z,19.32
2022-08-19T09:56:09.427Z,19.38
2022-08-19T09:58:37.380Z,19.42
2022-08-19T10:01:06.301Z,19.50
2022-08-19T10:03:34.994Z,19.48
2022-08-19T10:06:04.707Z,19.47
2022-08-19T10:08:35.608Z,19.74
2022-08-19T10:11:28.152Z,19.62
2022-08-19T10:13:51.677Z,19.68
2022-08-19T10:16:26.026Z,19.70
2022-08-19T10:18:59.123Z,19.68
2022-08-19T10:21:33.031Z,19.73
2022-08-19T10:24:04.749Z,19.82
2022-08-19T10:26:35.721Z,19.95
2022-08-19T10:29:05.852Z,19.89
2022-08-19T10:32:01.216Z,19.91
2022-08-19T10:34:27.656Z,19.88
2022-08-19T10:37:00.956Z,20.03
2022-08-19T10:39:43.199Z,20.18
2022-08-19T10:42:14.318Z,20.27
2022-08-19T10:44:41.979Z,20.22
2022-08-19T10:47:17.546Z,20.34
2022-08-19T10:50:11.797Z,20.25
2022-08-19T10:52:49.875Z,20.39
2022-08-19T10:55:42.633Z,20.42
2022-08-19T10:58:18.107Z,20.35
2022-08-19T11:00:56.388Z,20.47
2022-08-19T11:03:29.363Z,20.40
2022-08-19T11:06:01.150Z,20.42
2022-08-19T11:08:28.526Z,20.68
2022-08-19T11:10:58.529Z,20.53
2022-08-19T11:13:26.075Z,20.55
2022-08-19T11:16:06.558Z,20.98
2022-08-19T11:18:45.389Z,20.87
2022-08-19T11:21:13.919Z,20.56
2022-08-19T11:23:41.447Z,20.66
2022-08-19T11:26:08.223Z,20.49
2022-08-19T11:28:35.034Z,20.57
2022-08-19T11:31:02.347Z,20.68
2022-08-19T11:33:29.177Z,20.65
2022-08-19T11:36:01.766Z,20.72
2022-08-19T11:38:28.627Z,20.55
2022-08-19T11:41:04.173Z,20.61
2022-08-19T11:43:36.762Z,20.46
2022-08-19T11:46:10.991Z,20.31
2022-08-19T11:48:38.943Z,20.15
2022-08-19T11:51:14.643Z,20.19
2022-08-19T11:53:42.027Z,20.22
2022-08-19T11:56:10.208Z,20.32
2022-08-19T11:58:37.681Z,20.38
2022-08-19T12:01:17.752Z,20.12
2022-08-19T12:03:46.076Z,20.20
2022-08-19T12:06:19.798Z,20.16
2022-08-19T12:08:48.552Z,20.27
2022-08-19T12:11:15.543Z,20.25
2022-08-19T12:13:46.865Z,20.30
2022-08-19T12:16:18.053Z,20.27
2022-08-19T12:18:47.448Z,20.27
2022-08-19T12:21:15.912Z,20.37
2022-08-19T12:23:43.852Z,20.36
2022-08-19T12:26:12.146Z,20.40
2022-08-19T12:28:39.787Z,20.55
2022-08-19T12:31:07.028Z,20.73
2022-08-19T12:33:34.019Z,20.73
2022-08-19T12:36:06.741Z,20.75
2022-08-19T12:38:35.544Z,21.46
2022-08-19T12:41:07.952Z,21.29
2022-08-19T12:43:36.092Z,21.58
2022-08-19T12:46:05.253Z,21.23
2022-08-19T12:48:35.042Z,21.81
2022-08-19T12:51:07.974Z,21.75
2022-08-19T12:53:35.039Z,21.50
2022-08-19T12:56:07.428Z,21.54
2022-08-19T12:58:36.056Z,21.51
2022-08-19T13:01:12.258Z,21.81
2022-08-19T13:03:40.797Z,22.01
2022-08-19T13:06:09.412Z,22.04
2022-08-19T13:08:36.945Z,22.03
2022-08-19T13:11:18.830Z,21.52
2022-08-19T13:13:49.286Z,21.32
2022-08-19T13:16:16.908Z,21.69
2022-08-19T13:18:46.337Z,21.72
2022-08-19T13:21:14.262Z,21.74
2022-08-19T13:23:42.030Z,21.68
2022-08-19T13:26:11.282Z,21.82
2022-08-19T13:28:56.955Z,21.94
2022-08-19T13:31:44.652Z,21.90
2022-08-19T13:34:12.197Z,22.00
2022-08-19T13:36:39.687Z,22.01
2022-08-19T13:39:08.668Z,21.86
2022-08-19T13:41:37.087Z,21.64
2022-08-19T13:44:04.941Z,21.55
2022-08-19T13:46:31.823Z,21.25
2022-08-19T13:48:58.768Z,21.04
2022-08-19T13:51:25.576Z,21.12
2022-08-19T13:53:52.479Z,21.25
2022-08-19T13:56:26.327Z,21.43
2022-08-19T13:58:54.489Z,21.54
2022-08-19T14:01:23.347Z,21.54
2022-08-19T14:03:51.766Z,21.81
2022-08-19T14:06:18.501Z,22.00
2022-08-19T14:08:46.430Z,21.98
2022-08-19T14:11:13.400Z,21.74
2022-08-19T14:13:40.556Z,21.62
2022-08-19T14:16:12.186Z,21.61
2022-08-19T14:18:39.557Z,21.69
2022-08-19T14:21:07.807Z,21.72
2022-08-19T14:23:35.082Z,21.65
2022-08-19T14:26:08.042Z,21.63
2022-08-19T14:28:35.119Z,21.87
2022-08-19T14:31:01.863Z,22.03
2022-08-19T14:33:28.596Z,22.20
2022-08-19T14:35:59.858Z,22.05
2022-08-19T14:38:31.634Z,22.15
2022-08-19T14:41:17.347Z,22.43
2022-08-19T14:43:50.805Z,22.84
2022-08-19T14:46:23.733Z,22.75
2022-08-19T14:48:52.761Z,22.65
2022-08-19T14:51:20.960Z,22.63
2022-08-19T14:53:49.789Z,22.53
2022-08-19T14:56:19.577Z,22.27
2022-08-19T14:58:46.753Z,22.36
2022-08-19T15:01:14.505Z,22.13
2022-08-19T15:03:42.152Z,22.41
2022-08-19T15:06:09.594Z,22.31
2022-08-19T15:08:41.947Z,22.10
2022-08-19T15:11:11.505Z,22.19
2022-08-19T15:13:40.500Z,22.19
2022-08-19T15:16:12.051Z,22.31
2022-08-19T15:18:47.201Z,22.89
2022-08-19T15:21:26.694Z,22.68
2022-08-19T15:23:56.547Z,22.51
2022-08-19T15:26:23.404Z,22.34
2022-08-19T15:28:50.149Z,22.38
2022-08-19T15:31:25.214Z,22.45
2022-08-19T15:33:59.114Z,22.40
2022-08-19T15:36:27.102Z,22.45
2022-08-19T15:38:54.156Z,22.30
2022-08-19T15:41:24.755Z,22.31
2022-08-19T15:43:59.705Z,22.20
2022-08-19T15:46:31.475Z,22.30
2022-08-19T15:49:00.012Z,22.14
2022-08-19T15:51:30.469Z,22.06
2022-08-19T15:54:00.366Z,22.03
2022-08-19T15:56:57.844Z,22.00
2022-08-19T15:59:46.807Z,21.93
2022-08-19T16:02:33.299Z,21.82
2022-08-19T16:05:19.031Z,21.88
2022-08-19T16:07:45.841Z,21.73
2022-08-19T16:10:26.531Z,21.80
2022-08-19T16:12:59.068Z,21.73
2022-08-19T16:15:28.122Z,21.71
2022-08-19T16:17:57.371Z,21.69
2022-08-19T16:20:24.718Z,21.66
2022-08-19T16:22:52.971Z,21.63
2022-08-19T16:25:19.682Z,21.63
2022-08-19T16:27:56.269Z,21.64
2022-08-19T16:30:33.188Z,21.66
2022-08-19T16:32:59.966Z,21.71
2022-08-19T16:35:26.644Z,21.73
2022-08-19T16:37:53.791Z,21.79
2022-08-19T16:40:20.656Z,21.90
2022-08-19T16:42:47.555Z,21.91
2022-08-19T16:45:14.266Z,21.94
2022-08-19T16:47:41.257Z,22.02
2022-08-19T16:50:08.455Z,22.02
2022-08-19T16:52:36.517Z,22.05
2022-08-19T16:55:05.988Z,22.12
2022-08-19T16:57:33.253Z,22.16
2022-08-19T17:00:03.146Z,22.23
2022-08-19T17:02:30.458Z,22.43
2022-08-19T17:04:59.314Z,22.44
2022-08-19T17:07:33.296Z,22.59
2022-08-19T17:10:01.481Z,22.56
2022-08-19T17:12:31.852Z,22.46
2022-08-19T17:15:00.758Z,22.48
2022-08-19T17:17:29.383Z,22.42
2022-08-19T17:19:57.574Z,22.40
2022-08-19T17:22:24.318Z,22.53
2022-08-19T17:24:51.012Z,22.36
2022-08-19T17:27:19.776Z,22.19
2022-08-19T17:29:49.400Z,22.08
2022-08-19T17:32:16.115Z,22.09
2022-08-19T17:34:51.598Z,21.97
2022-08-19T17:37:19.188Z,21.92
2022-08-19T17:39:46.223Z,21.92
2022-08-19T17:42:13.041Z,21.90
2022-08-19T17:44:40.896Z,21.90
2022-08-19T17:47:07.825Z,21.92
2022-08-19T17:49:34.806Z,21.88
2022-08-19T17:52:01.487Z,21.89
2022-08-19T17:54:33.241Z,21.91
2022-08-19T17:57:01.428Z,21.80
2022-08-19T17:59:30.270Z,21.63
2022-08-19T18:01:57.650Z,21.47
2022-08-19T18:04:26.158Z,21.45
2022-08-19T18:06:55.411Z,21.46
2022-08-19T18:09:30.016Z,21.42
2022-08-19T18:12:13.611Z,21.34
2022-08-19T18:14:40.550Z,21.29
2022-08-19T18:17:10.398Z,21.08
2022-08-19T18:19:41.442Z,20.98
2022-08-19T18:22:22.619Z,20.86
2022-08-19T18:24:49.972Z,20.72
2022-08-19T18:27:16.866Z,20.56
2022-08-19T18:29:44.484Z,20.46
2022-08-19T18:32:14.455Z,20.31
2022-08-19T18:34:45.934Z,20.19
2022-08-19T18:37:12.968Z,20.17
2022-08-19T18:39:58.386Z,20.15
2022-08-19T18:43:00.472Z,20.15
2022-08-19T18:45:45.720Z,20.07
2022-08-19T18:48:31.029Z,20.04
2022-08-19T18:51:01.637Z,19.86
2022-08-19T18:53:33.536Z,19.61
2022-08-19T18:56:00.353Z,19.49
2022-08-19T18:58:33.107Z,19.37
2022-08-19T19:01:13.173Z,19.36
2022-08-19T19:03:45.916Z,19.32
2022-08-19T19:06:15.872Z,19.22
2022-08-19T19:08:43.585Z,19.17
2022-08-19T19:11:10.460Z,19.06
2022-08-19T19:13:40.460Z,19.02
2022-08-19T19:16:09.993Z,18.98
2022-08-19T19:18:37.393Z,19.03
2022-08-19T19:21:04.435Z,19.06
2022-08-19T19:23:32.127Z,19.07
2022-08-19T19:26:00.803Z,19.03
2022-08-19T19:28:29.369Z,18.97
2022-08-19T19:31:00.134Z,18.94
2022-08-19T19:33:28.176Z,18.90
2022-08-19T19:35:56.008Z,18.82
2022-08-19T19:38:23.037Z,18.65
2022-08-19T19:40:49.944Z,18.53
2022-08-19T19:43:18.400Z,18.41
2022-08-19T19:45:47.069Z,18.36
2022-08-19T19:48:16.363Z,18.35
2022-08-19T19:50:45.052Z,18.46
2022-08-19T19:53:15.098Z,18.50
2022-08-19T19:55:43.127Z,18.61
2022-08-19T19:58:09.806Z,18.61
2022-08-19T20:00:36.634Z,18.64
2022-08-19T20:03:03.567Z,18.63
2022-08-19T20:05:30.309Z,18.65
2022-08-19T20:08:16.231Z,18.59
2022-08-19T20:10:51.314Z,18.61
2022-08-19T20:13:24.695Z,18.60
2022-08-19T20:15:52.414Z,18.52
2022-08-19T20:18:23.861Z,18.47
2022-08-19T20:20:54.607Z,18.42
2022-08-19T20:23:22.865Z,18.37
2022-08-19T20:25:53.812Z,18.25
2022-08-19T20:28:22.569Z,18.09
2022-08-19T20:30:50.028Z,18.13
2022-08-19T20:33:17.897Z,18.09
2022-08-19T20:35:46.862Z,17.97
2022-08-19T20:38:13.709Z,17.84
2022-08-19T20:40:41.328Z,17.77
2022-08-19T20:43:10.352Z,17.72
2022-08-19T20:45:37.203Z,17.74
2022-08-19T20:48:06.743Z,17.85
2022-08-19T20:50:36.054Z,17.89
2022-08-19T20:53:12.987Z,17.92
2022-08-19T20:55:42.791Z,17.80
2022-08-19T20:58:10.115Z,17.64
2022-08-19T21:00:37.609Z,17.66
2022-08-19T21:03:08.706Z,17.46
2022-08-19T21:05:39.871Z,17.35
2022-08-19T21:08:09.363Z,17.34
2022-08-19T21:10:42.175Z,17.23
2022-08-19T21:13:12.845Z,17.09
2022-08-19T21:15:43.186Z,17.12
2022-08-19T21:18:13.301Z,17.21
2022-08-19T21:20:44.560Z,17.24
2022-08-19T21:23:15.140Z,17.31
2022-08-19T21:25:52.983Z,17.28
2022-08-19T21:28:34.557Z,17.25
2022-08-19T21:31:07.070Z,17.25
2022-08-19T21:33:34.254Z,17.08
2022-08-19T21:36:00.925Z,16.86
2022-08-19T21:38:28.598Z,16.90
2022-08-19T21:40:56.104Z,16.94
2022-08-19T21:43:23.942Z,17.00
2022-08-19T21:45:51.047Z,17.02
2022-08-19T21:48:19.122Z,17.01
2022-08-19T21:50:48.515Z,16.84
2022-08-19T21:53:19.349Z,16.63
2022-08-19T21:55:53.434Z,16.72
2022-08-19T21:58:28.133Z,16.62
2022-08-19T22:01:01.675Z,16.78
2022-08-19T22:03:29.288Z,16.84
2022-08-19T22:05:56.114Z,16.92
2022-08-19T22:08:22.987Z,16.93
2022-08-19T22:10:49.843Z,16.92
2022-08-19T22:13:18.342Z,16.89
2022-08-19T22:15:50.418Z,16.88
2022-08-19T22:18:18.420Z,16.93
2022-08-19T22:20:45.694Z,16.99
2022-08-19T22:23:13.410Z,16.99
2022-08-19T22:25:45.037Z,16.91
2022-08-19T22:28:14.131Z,16.94
2022-08-19T22:30:47.209Z,16.88
2022-08-19T22:37:19.924Z,16.87
2022-08-19T22:39:46.648Z,16.90
2022-08-19T22:42:13.872Z,16.68
2022-08-19T22:44:40.570Z,16.59
2022-08-19T22:47:07.281Z,16.64
2022-08-19T22:49:34.040Z,16.55
2022-08-19T22:52:18.157Z,16.58
2022-08-19T22:54:59.106Z,16.56
2022-08-19T22:57:25.818Z,16.42
2022-08-19T22:59:58.890Z,16.52
2022-08-19T23:02:34.525Z,16.43
2022-08-19T23:05:02.657Z,16.49
2022-08-19T23:07:29.589Z,16.46
2022-08-19T23:09:56.762Z,16.47
2022-08-19T23:12:34.046Z,16.56
2022-08-19T23:15:10.207Z,16.51
2022-08-19T23:17:37.505Z,16.61
2022-08-19T23:20:05.957Z,16.68
2022-08-19T23:22:33.686Z,16.65
2022-08-19T23:25:09.960Z,16.64
2022-08-19T23:27:55.279Z,16.60
2022-08-19T23:30:27.915Z,16.58
2022-08-19T23:33:03.505Z,16.47
2022-08-19T23:35:36.372Z,16.55
2022-08-19T23:38:05.329Z,16.60
2022-08-19T23:40:32.204Z,16.61
2022-08-19T23:42:58.960Z,16.68
2022-08-19T23:45:27.439Z,16.69
2022-08-19T23:47:54.782Z,16.66
2022-08-19T23:50:24.123Z,16.56
2022-08-19T23:52:56.888Z,16.54
2022-08-19T23:55:27.601Z,16.60
2022-08-19T23:57:54.391Z,16.65
